メインページ
METAR-TAF:

METAR-TAF

空港 :

アルハンゲリスク, ロシア

緯度: 64-30N, 経度: 040-44E, 海抜: 13m

現時点の気象観測

当レポートは30分前の23:30(UTC)に作成
北西の風 4kt
気温 -13°C
湿度 78%
気圧 1034 hPa
視程10km以上
高度3000ftの曇り

METAR: ULAA 242330Z 32002MPS 9999 OVC030 M13/M16 Q1034 R08/490245 NOSIG RMK QFE775/1033

時間: 03:00 (00:00 UTC)

予報

当レポートは1時間0分前の23:00(UTC)に作成
予報は25日の 00時(UTC)から 25日の 24時(UTC)まで有効
東/北東の風 6kt
視程: 6000m
高度1300ftの千切れ雲あり
25日の 00時(UTC)から 25日の 06時(UTC)まで一時的に
北/北東の風 6kt、最大16ktの突風を伴う
視程: 3100m
高度1100ftの千切れ雲あり, 積乱雲.
弱いにわか雪, 靄
25日の 06時(UTC)から 25日の 15時(UTC)まで一時的に
北/北西の風 12kt
視程: 3100m
高度1100ftの雲は散在している
小雪

TAF: ULAA 242300Z 2500/2524 07003MPS 6000 BKN013 TEMPO 2500/2506 02003G08MPS 3100 -SHSN BR BKN011CB TEMPO 2506/2515 34006MPS 3100 -SN SCT011

4,000以上の空港の気象観測と天気予報(METAR報とTAF報)

利用可能な観測所は地図上に黄色い丸と赤い丸で示す。

丸の上にカーソルを重ねると観測所名を参照できる。

次にクリックすると気象観測と天気予報を参照できる。

マップの切り替え:黒色「×」印の緑ボタンをクリックして拡大、「-」印の緑ボタンをクリックして縮小、緑色の三角印をクリックして隣りの地図に切り替え


METAR-TAF: